aviador You're here:

LTCJ Decoded Metar

BATMAN in TURKEY
Report Time2017-11-23 02:50:00
UTC Time2017-11-23 03:30:34
Flight Rules vfr VFR
Wind180° at 03 kt
W.Decomp.*RWY 20: 2.7 kt HW 1.2 kt LCW
W.Rank180° ranks 15
Current wind is below 180° avg. (4.7)
Visibility9999 m
Phenomena:N/A
Clouds:N/A
Expected CloudBase > 2,000 ft AGL from Temp-Dew spread
CeilingNone
Temp01°C (ISA -10)
Dew Point-4°C (70% RH)
AAT-2.6°C
QNH1015 hPa
Density Alt502 ft
Elevation1,772 ft
Report Wrong Elevation
Raw Report
LTCJ 230250Z 18003KT CAVOK 01/M04 Q1015=

Extra information for LTCJ:More info

Metar Taf Metar & Taf Last 4 Metars F.Rules Stats Wind Profile Meteogram Temp Stats Airport Information Weather charts Add Link Nearby VenuesMetar ALERT Operation Metar Decoded Social comments